createdAt,value
2023-01-29T00:02:23.261Z,86.98
2023-01-29T00:04:53.676Z,87.44
2023-01-29T00:07:24.037Z,88.22
2023-01-29T00:09:54.384Z,88.11
2023-01-29T00:12:26.267Z,89.36
2023-01-29T00:14:56.167Z,89.81
2023-01-29T00:17:26.378Z,89.57
2023-01-29T00:19:56.229Z,89.52
2023-01-29T00:22:26.443Z,89.61
2023-01-29T00:24:56.783Z,90.10
2023-01-29T00:27:26.823Z,90.31
2023-01-29T00:30:14.506Z,90.57
2023-01-29T00:32:44.880Z,90.55
2023-01-29T00:35:14.917Z,91.64
2023-01-29T00:37:45.025Z,91.52
2023-01-29T00:40:15.744Z,91.13
2023-01-29T00:43:07.092Z,91.85
2023-01-29T00:45:40.891Z,91.90
2023-01-29T00:48:10.905Z,91.83
2023-01-29T00:50:41.136Z,91.86
2023-01-29T00:53:11.144Z,92.62
2023-01-29T00:55:41.158Z,92.30
2023-01-29T00:58:11.322Z,92.22
2023-01-29T01:00:41.417Z,92.95
2023-01-29T01:03:12.295Z,92.30
2023-01-29T01:05:45.390Z,92.45
2023-01-29T01:08:33.788Z,92.79
2023-01-29T01:11:07.946Z,93.38
2023-01-29T01:13:38.208Z,93.15
2023-01-29T01:16:16.286Z,92.91
2023-01-29T01:18:46.733Z,92.32
2023-01-29T01:21:17.065Z,91.80
2023-01-29T01:23:47.356Z,93.70
2023-01-29T01:26:17.372Z,94.11
2023-01-29T01:28:47.536Z,94.50
2023-01-29T01:31:17.619Z,90.78
2023-01-29T01:33:47.793Z,89.87
2023-01-29T01:36:18.338Z,89.32
2023-01-29T01:38:48.550Z,88.71
2023-01-29T01:41:23.111Z,88.67
2023-01-29T01:43:58.620Z,88.75
2023-01-29T01:46:33.465Z,89.01
2023-01-29T01:49:14.037Z,88.32
2023-01-29T01:51:52.353Z,88.09
2023-01-29T01:54:32.901Z,88.00
2023-01-29T01:57:17.154Z,88.80
2023-01-29T02:00:01.811Z,88.13
2023-01-29T02:03:04.088Z,88.10
2023-01-29T02:05:53.936Z,88.74
2023-01-29T02:09:12.306Z,90.26
2023-01-29T02:11:42.423Z,91.76
2023-01-29T02:14:13.163Z,92.50
2023-01-29T02:16:43.202Z,93.01
2023-01-29T02:19:24.173Z,93.44
2023-01-29T02:22:08.171Z,94.11
2023-01-29T02:25:01.304Z,94.12
2023-01-29T02:27:46.088Z,94.59
2023-01-29T02:30:20.541Z,94.16
2023-01-29T02:32:59.506Z,94.47
2023-01-29T02:35:55.109Z,95.15
2023-01-29T02:38:43.468Z,95.23
2023-01-29T02:41:22.355Z,95.73
2023-01-29T02:44:22.257Z,95.43
2023-01-29T02:47:26.625Z,95.36
2023-01-29T02:50:05.921Z,96.54
2023-01-29T02:52:59.691Z,96.27
2023-01-29T02:55:52.066Z,97.02
2023-01-29T02:58:59.417Z,96.94
2023-01-29T03:01:37.704Z,97.39
2023-01-29T03:04:16.801Z,97.62
2023-01-29T03:06:57.980Z,97.86
2023-01-29T03:09:43.746Z,97.85
2023-01-29T03:15:40.159Z,98.20
2023-01-29T03:18:28.919Z,97.50
2023-01-29T03:21:26.658Z,97.61
2023-01-29T03:24:17.765Z,97.81
2023-01-29T03:27:06.019Z,98.30
2023-01-29T03:29:59.970Z,98.73
2023-01-29T03:32:48.269Z,98.93
2023-01-29T03:35:37.707Z,99.66
2023-01-29T03:38:12.967Z,99.52
2023-01-29T03:40:47.676Z,99.05
2023-01-29T03:43:57.137Z,99.01
2023-01-29T03:46:33.389Z,99.56
2023-01-29T03:49:36.272Z,99.37
2023-01-29T03:52:19.483Z,99.47
2023-01-29T03:54:58.980Z,99.36
2023-01-29T03:58:03.099Z,99.63
2023-01-29T04:00:40.288Z,99.67
2023-01-29T04:03:31.304Z,99.85
2023-01-29T04:06:17.111Z,99.99
2023-01-29T04:09:14.763Z,99.99
2023-01-29T04:11:53.976Z,99.99
2023-01-29T04:14:24.936Z,99.99
2023-01-29T04:17:02.491Z,99.99
2023-01-29T04:19:40.852Z,99.99
2023-01-29T04:28:29.444Z,99.99
2023-01-29T04:31:08.410Z,99.99
2023-01-29T04:33:49.936Z,99.99
2023-01-29T04:36:53.933Z,99.99
2023-01-29T04:39:54.558Z,99.99
2023-01-29T04:42:31.496Z,99.99
2023-01-29T04:45:21.516Z,99.99
2023-01-29T04:48:14.730Z,99.99
2023-01-29T04:51:15.347Z,99.99
2023-01-29T04:53:53.750Z,99.99
2023-01-29T04:56:38.839Z,99.99
2023-01-29T04:59:17.705Z,99.99
2023-01-29T05:01:49.665Z,99.99
2023-01-29T05:04:20.673Z,99.99
2023-01-29T05:06:51.559Z,99.99
2023-01-29T05:09:22.019Z,99.99
2023-01-29T05:11:52.431Z,99.99
2023-01-29T05:14:25.418Z,99.99
2023-01-29T05:16:58.824Z,99.99
2023-01-29T05:19:29.211Z,99.99
2023-01-29T05:22:00.201Z,99.99
2023-01-29T05:24:30.409Z,99.99
2023-01-29T05:27:18.492Z,99.99
2023-01-29T05:29:50.394Z,99.99
2023-01-29T05:32:20.384Z,99.99
2023-01-29T05:34:50.477Z,99.99
2023-01-29T05:37:20.448Z,99.99
2023-01-29T05:39:50.410Z,99.99
2023-01-29T05:42:20.588Z,99.99
2023-01-29T05:44:50.549Z,99.99
2023-01-29T05:47:23.804Z,99.99
2023-01-29T05:49:53.749Z,99.99
2023-01-29T05:52:23.548Z,99.99
2023-01-29T05:54:53.546Z,99.99
2023-01-29T05:57:23.597Z,99.99
2023-01-29T05:59:53.603Z,99.99
2023-01-29T06:02:23.791Z,99.99
2023-01-29T06:04:54.258Z,99.99
2023-01-29T06:07:24.335Z,99.99
2023-01-29T06:09:54.376Z,99.99
2023-01-29T06:12:24.297Z,99.99
2023-01-29T06:14:54.094Z,99.99
2023-01-29T06:17:23.923Z,99.99
2023-01-29T06:19:53.903Z,99.99
2023-01-29T06:22:23.684Z,99.99
2023-01-29T06:24:53.635Z,99.99
2023-01-29T06:27:23.647Z,99.99
2023-01-29T06:29:53.707Z,99.99
2023-01-29T06:32:23.932Z,99.99
2023-01-29T06:34:54.423Z,99.99
2023-01-29T06:37:24.388Z,99.99
2023-01-29T06:39:54.191Z,99.99
2023-01-29T06:42:29.882Z,99.99
2023-01-29T06:44:59.899Z,99.99
2023-01-29T06:47:30.045Z,99.99
2023-01-29T06:50:00.016Z,99.99
2023-01-29T06:52:30.869Z,99.99
2023-01-29T06:55:00.864Z,99.99
2023-01-29T06:57:33.519Z,99.99
2023-01-29T07:00:03.817Z,99.99
2023-01-29T07:02:33.918Z,99.99
2023-01-29T07:05:03.717Z,99.99
2023-01-29T07:07:35.926Z,99.99
2023-01-29T07:10:06.242Z,99.99
2023-01-29T07:12:36.366Z,99.99
2023-01-29T07:15:06.807Z,99.99
2023-01-29T07:17:36.923Z,99.99
2023-01-29T07:20:07.786Z,99.99
2023-01-29T07:22:37.915Z,99.99
2023-01-29T07:25:08.440Z,99.99
2023-01-29T07:27:38.416Z,99.99
2023-01-29T07:30:09.513Z,99.99
2023-01-29T07:32:39.613Z,99.99
2023-01-29T07:35:10.064Z,99.99
2023-01-29T07:37:40.109Z,99.99
2023-01-29T07:40:14.535Z,99.99
2023-01-29T07:42:45.371Z,99.99
2023-01-29T07:45:15.569Z,99.99
2023-01-29T07:47:45.555Z,99.99
2023-01-29T07:50:15.713Z,99.99
2023-01-29T07:52:45.795Z,99.99
2023-01-29T07:55:15.669Z,99.99
2023-01-29T07:57:46.283Z,99.99
2023-01-29T08:00:17.035Z,99.99
2023-01-29T08:02:47.388Z,99.99
2023-01-29T08:05:17.353Z,99.99
2023-01-29T08:07:51.548Z,99.99
2023-01-29T08:10:31.226Z,99.99
2023-01-29T08:13:02.672Z,99.99
2023-01-29T08:15:33.305Z,99.99
2023-01-29T08:18:04.376Z,99.99
2023-01-29T08:20:34.720Z,99.99
2023-01-29T08:23:07.254Z,99.99
2023-01-29T08:25:39.049Z,99.99
2023-01-29T08:28:09.958Z,99.99
2023-01-29T08:30:40.504Z,99.99
2023-01-29T08:33:10.525Z,99.99
2023-01-29T08:35:42.287Z,99.99
2023-01-29T08:38:12.461Z,99.99
2023-01-29T08:40:42.432Z,99.99
2023-01-29T08:43:14.349Z,99.99
2023-01-29T08:45:46.333Z,99.99
2023-01-29T08:48:16.330Z,99.99
2023-01-29T08:50:46.469Z,99.99
2023-01-29T08:53:16.446Z,99.99
2023-01-29T08:55:48.066Z,99.99
2023-01-29T08:58:18.280Z,99.99
2023-01-29T09:00:48.337Z,99.99
2023-01-29T09:03:18.336Z,99.99
2023-01-29T09:05:48.543Z,99.99
2023-01-29T09:08:18.480Z,99.99
2023-01-29T09:10:48.429Z,99.99
2023-01-29T09:13:18.616Z,99.99
2023-01-29T09:15:48.573Z,99.99
2023-01-29T09:18:18.543Z,99.99
2023-01-29T09:20:48.795Z,99.99
2023-01-29T09:23:18.786Z,99.99
2023-01-29T09:25:48.773Z,99.99
2023-01-29T09:28:19.009Z,99.99
2023-01-29T09:30:49.261Z,99.99
2023-01-29T09:33:19.757Z,99.99
2023-01-29T09:35:49.736Z,99.99
2023-01-29T09:38:19.728Z,99.99
2023-01-29T09:40:58.365Z,99.99
2023-01-29T09:43:45.623Z,99.99
2023-01-29T09:46:34.784Z,99.99
2023-01-29T09:49:30.356Z,99.99
2023-01-29T09:52:05.642Z,99.99
2023-01-29T09:54:48.890Z,99.99
2023-01-29T09:57:32.170Z,99.99
2023-01-29T10:00:02.148Z,99.99
2023-01-29T10:02:59.684Z,99.99
2023-01-29T10:06:01.721Z,99.99
2023-01-29T10:08:52.857Z,99.99
2023-01-29T10:11:39.795Z,99.99
2023-01-29T10:14:20.926Z,99.99
2023-01-29T10:17:08.262Z,99.99
2023-01-29T10:19:56.529Z,99.99
2023-01-29T10:22:59.219Z,99.99
2023-01-29T10:25:29.684Z,99.99
2023-01-29T10:28:01.600Z,99.99
2023-01-29T10:30:40.158Z,99.99
2023-01-29T10:33:18.579Z,99.99
2023-01-29T10:35:55.797Z,99.99
2023-01-29T10:38:39.093Z,99.99
2023-01-29T10:41:14.962Z,99.99
2023-01-29T10:44:03.316Z,99.99
2023-01-29T10:47:10.160Z,99.99
2023-01-29T10:50:18.280Z,99.99
2023-01-29T10:53:04.994Z,99.47
2023-01-29T10:55:49.999Z,98.85
2023-01-29T10:58:43.022Z,98.53
2023-01-29T11:01:13.098Z,98.23
2023-01-29T11:03:43.136Z,97.69
2023-01-29T11:06:17.436Z,97.45
2023-01-29T11:09:11.862Z,97.28
2023-01-29T11:11:52.598Z,96.11
2023-01-29T11:14:48.695Z,96.19
2023-01-29T11:17:23.985Z,95.28
2023-01-29T11:19:59.041Z,94.52
2023-01-29T11:22:31.806Z,92.81
2023-01-29T11:25:19.744Z,91.62
2023-01-29T11:28:02.613Z,92.76
2023-01-29T11:30:43.004Z,93.37
2023-01-29T11:33:25.664Z,93.36
2023-01-29T11:35:58.056Z,91.86
2023-01-29T11:38:30.228Z,88.77
2023-01-29T11:41:09.534Z,89.16
2023-01-29T11:43:41.070Z,85.78
2023-01-29T11:46:16.909Z,84.20
2023-01-29T11:48:59.331Z,82.39
2023-01-29T11:51:37.955Z,82.10
2023-01-29T11:54:13.003Z,82.78
2023-01-29T11:56:48.473Z,82.31
2023-01-29T11:59:31.022Z,83.96
2023-01-29T12:02:24.197Z,83.40
2023-01-29T12:04:56.929Z,81.41
2023-01-29T12:07:28.350Z,79.71
2023-01-29T12:10:01.208Z,80.61
2023-01-29T12:12:42.086Z,82.87
2023-01-29T12:15:25.576Z,80.97
2023-01-29T12:18:05.581Z,79.15
2023-01-29T12:20:45.049Z,78.52
2023-01-29T12:23:42.500Z,78.23
2023-01-29T12:26:17.420Z,78.67
2023-01-29T12:29:26.113Z,78.89
2023-01-29T12:32:05.064Z,78.23
2023-01-29T12:34:53.208Z,77.79
2023-01-29T12:37:43.540Z,74.07
2023-01-29T12:40:19.475Z,74.15
2023-01-29T12:42:54.796Z,71.23
2023-01-29T12:45:29.440Z,72.33
2023-01-29T12:48:06.889Z,68.47
2023-01-29T12:50:40.334Z,71.32
2023-01-29T12:53:32.433Z,73.19
2023-01-29T12:56:26.426Z,73.33
2023-01-29T12:58:58.869Z,71.83
2023-01-29T13:01:37.793Z,71.08
2023-01-29T13:04:44.928Z,68.87
2023-01-29T13:07:48.638Z,68.05
2023-01-29T13:10:25.740Z,66.12
2023-01-29T13:13:03.683Z,65.19
2023-01-29T13:15:43.620Z,69.85
2023-01-29T13:18:35.510Z,68.94
2023-01-29T13:21:07.102Z,64.25
2023-01-29T13:23:41.217Z,63.35
2023-01-29T13:26:12.982Z,63.17
2023-01-29T13:28:47.358Z,65.22
2023-01-29T13:31:49.740Z,66.63
2023-01-29T13:34:33.594Z,66.95
2023-01-29T13:37:12.191Z,65.66
2023-01-29T13:39:50.562Z,66.07
2023-01-29T13:42:34.407Z,67.77
2023-01-29T13:45:08.813Z,68.22
2023-01-29T13:47:41.405Z,69.25
2023-01-29T13:50:21.177Z,69.90
2023-01-29T13:53:03.305Z,69.39
2023-01-29T13:55:35.921Z,70.15
2023-01-29T13:58:20.411Z,69.96
2023-01-29T14:00:51.466Z,70.13
2023-01-29T14:03:29.967Z,70.64
2023-01-29T14:06:05.988Z,70.05
2023-01-29T14:08:46.517Z,70.23
2023-01-29T14:11:21.201Z,70.21
2023-01-29T14:13:53.488Z,68.03
2023-01-29T14:16:23.494Z,69.00
2023-01-29T14:19:00.436Z,68.48
2023-01-29T14:21:33.547Z,67.73
2023-01-29T14:24:19.558Z,69.69
2023-01-29T14:26:50.362Z,70.49
2023-01-29T14:29:34.158Z,69.13
2023-01-29T14:32:26.592Z,70.30
2023-01-29T14:35:06.515Z,70.32
2023-01-29T14:37:40.282Z,70.45
2023-01-29T14:40:13.230Z,70.32
2023-01-29T14:43:09.424Z,69.20
2023-01-29T14:45:43.082Z,70.45
2023-01-29T14:48:13.068Z,71.14
2023-01-29T14:50:49.562Z,69.78
2023-01-29T14:53:57.168Z,69.98
2023-01-29T14:56:42.092Z,70.27
2023-01-29T14:59:30.833Z,71.63
2023-01-29T15:02:27.679Z,70.80
2023-01-29T15:05:01.382Z,69.62
2023-01-29T15:07:57.191Z,70.03
2023-01-29T15:10:45.156Z,69.59
2023-01-29T15:13:23.366Z,67.68
2023-01-29T15:15:58.509Z,70.08
2023-01-29T15:18:43.035Z,69.45
2023-01-29T15:21:17.167Z,66.34
2023-01-29T15:23:51.354Z,63.93
2023-01-29T15:26:26.651Z,61.33
2023-01-29T15:29:04.149Z,60.06
2023-01-29T15:31:36.643Z,60.13
2023-01-29T15:34:08.895Z,58.80
2023-01-29T15:36:41.024Z,59.14
2023-01-29T15:39:14.047Z,60.96
2023-01-29T15:41:45.799Z,61.18
2023-01-29T15:44:25.205Z,61.41
2023-01-29T15:47:02.771Z,60.29
2023-01-29T15:49:36.676Z,61.71
2023-01-29T15:52:20.640Z,62.20
2023-01-29T15:54:50.816Z,63.58
2023-01-29T15:57:38.393Z,66.34
2023-01-29T16:00:20.082Z,68.02
2023-01-29T16:02:50.436Z,69.62
2023-01-29T16:05:34.629Z,70.51
2023-01-29T16:08:05.527Z,70.62
2023-01-29T16:10:37.199Z,70.76
2023-01-29T16:13:07.610Z,69.44
2023-01-29T16:15:41.377Z,70.92
2023-01-29T16:18:35.226Z,71.53
2023-01-29T16:21:13.877Z,71.92
2023-01-29T16:24:08.214Z,72.33
2023-01-29T16:26:50.387Z,75.16
2023-01-29T16:29:35.509Z,75.54
2023-01-29T16:32:07.299Z,76.31
2023-01-29T16:34:42.149Z,77.11
2023-01-29T16:37:33.873Z,78.45
2023-01-29T16:40:16.375Z,78.63
2023-01-29T16:42:48.409Z,79.87
2023-01-29T16:45:28.792Z,79.39
2023-01-29T16:48:33.618Z,80.85
2023-01-29T16:51:14.908Z,84.35
2023-01-29T16:54:02.940Z,85.14
2023-01-29T16:56:35.013Z,86.84
2023-01-29T16:59:07.381Z,88.51
2023-01-29T17:01:38.093Z,89.34
2023-01-29T17:04:16.291Z,90.63
2023-01-29T17:06:55.176Z,91.04
2023-01-29T17:09:38.657Z,91.24
2023-01-29T17:12:20.349Z,92.12
2023-01-29T17:14:59.069Z,93.81
2023-01-29T17:17:34.711Z,93.60
2023-01-29T17:20:17.713Z,92.75
2023-01-29T17:22:48.242Z,93.02
2023-01-29T17:25:19.929Z,94.76
2023-01-29T17:27:52.913Z,95.69
2023-01-29T17:30:26.072Z,96.69
2023-01-29T17:32:56.047Z,95.28
2023-01-29T17:35:26.269Z,96.13
2023-01-29T17:37:56.149Z,96.11
2023-01-29T17:40:37.010Z,96.61
2023-01-29T17:43:08.752Z,97.32
2023-01-29T17:45:41.793Z,97.69
2023-01-29T17:48:27.274Z,98.47
2023-01-29T17:51:00.203Z,98.95
2023-01-29T17:53:43.447Z,98.06
2023-01-29T17:56:20.000Z,98.63
2023-01-29T17:58:50.254Z,98.64
2023-01-29T18:01:20.313Z,98.58
2023-01-29T18:03:50.193Z,99.22
2023-01-29T18:06:31.433Z,99.20
2023-01-29T18:09:01.406Z,99.56
2023-01-29T18:11:31.523Z,99.76
2023-01-29T18:14:13.605Z,99.72
2023-01-29T18:16:46.357Z,99.71
2023-01-29T18:19:18.809Z,97.57
2023-01-29T18:21:49.875Z,98.14
2023-01-29T18:24:21.526Z,98.87
2023-01-29T18:26:52.419Z,98.43
2023-01-29T18:29:22.388Z,98.85
2023-01-29T18:31:52.291Z,98.89
2023-01-29T18:34:22.897Z,99.76
2023-01-29T18:36:52.949Z,99.33
2023-01-29T18:39:22.979Z,99.99
2023-01-29T18:41:53.539Z,99.99
2023-01-29T18:44:23.522Z,99.95
2023-01-29T18:46:53.398Z,99.99
2023-01-29T18:49:23.250Z,99.99
2023-01-29T18:51:53.294Z,99.99
2023-01-29T18:54:23.286Z,99.99
2023-01-29T18:57:08.669Z,99.99
2023-01-29T18:59:44.515Z,99.99
2023-01-29T19:02:17.054Z,99.99
2023-01-29T19:04:47.331Z,99.99
2023-01-29T19:07:17.383Z,99.99
2023-01-29T19:09:48.085Z,99.99
2023-01-29T19:12:18.953Z,99.99
2023-01-29T19:14:49.004Z,99.99
2023-01-29T19:17:19.324Z,99.99
2023-01-29T19:19:49.533Z,99.99
2023-01-29T19:22:20.177Z,99.99
2023-01-29T19:24:50.418Z,99.99
2023-01-29T19:27:20.827Z,99.99
2023-01-29T19:29:52.167Z,99.99
2023-01-29T19:32:23.102Z,99.99
2023-01-29T19:34:53.429Z,99.99
2023-01-29T19:37:23.499Z,99.99
2023-01-29T19:39:54.780Z,99.99
2023-01-29T19:42:24.827Z,99.99
2023-01-29T19:44:54.827Z,99.99
2023-01-29T19:47:24.884Z,99.99
2023-01-29T19:49:54.887Z,99.99
2023-01-29T19:52:52.000Z,99.99
2023-01-29T19:55:22.603Z,99.99
2023-01-29T19:57:54.739Z,99.80
2023-01-29T20:00:24.991Z,99.99
2023-01-29T20:02:54.960Z,99.99
2023-01-29T20:05:28.114Z,99.99
2023-01-29T20:07:59.758Z,99.99
2023-01-29T20:10:29.770Z,99.99
2023-01-29T20:12:59.634Z,99.99
2023-01-29T20:15:29.542Z,99.99
2023-01-29T20:18:00.191Z,99.99
2023-01-29T20:20:32.575Z,99.99
2023-01-29T20:23:02.973Z,99.99
2023-01-29T20:25:33.115Z,99.99
2023-01-29T20:28:03.479Z,99.99
2023-01-29T20:30:34.753Z,99.99
2023-01-29T20:33:06.139Z,99.99
2023-01-29T20:35:37.590Z,99.99
2023-01-29T20:38:09.571Z,99.99
2023-01-29T20:40:39.531Z,99.99
2023-01-29T20:43:09.693Z,99.99
2023-01-29T20:45:42.857Z,99.99
2023-01-29T20:48:13.121Z,99.99
2023-01-29T20:50:44.112Z,99.99
2023-01-29T20:53:14.306Z,99.99
2023-01-29T20:55:44.273Z,99.99
2023-01-29T20:58:14.343Z,99.99
2023-01-29T21:00:46.295Z,99.99
2023-01-29T21:03:16.334Z,99.99
2023-01-29T21:05:46.710Z,99.99
2023-01-29T21:08:16.698Z,99.99
2023-01-29T21:10:46.942Z,99.99
2023-01-29T21:13:17.223Z,99.99
2023-01-29T21:15:48.224Z,99.99
2023-01-29T21:18:19.476Z,99.99
2023-01-29T21:20:51.679Z,99.99
2023-01-29T21:23:22.343Z,99.99
2023-01-29T21:25:52.341Z,99.99
2023-01-29T21:28:22.582Z,99.99
2023-01-29T21:30:53.547Z,99.99
2023-01-29T21:33:23.706Z,99.99
2023-01-29T21:36:00.099Z,99.99
2023-01-29T21:38:30.551Z,99.99
2023-01-29T21:41:02.096Z,99.99
2023-01-29T21:43:32.529Z,99.99
2023-01-29T21:46:06.151Z,99.99
2023-01-29T21:48:36.398Z,99.99
2023-01-29T21:51:06.703Z,99.99
2023-01-29T21:53:37.902Z,99.99
2023-01-29T21:56:08.180Z,99.99
2023-01-29T21:58:38.241Z,99.99
2023-01-29T22:01:18.443Z,99.99
2023-01-29T22:03:59.555Z,99.99
2023-01-29T22:06:30.155Z,99.99
2023-01-29T22:08:59.995Z,99.99
2023-01-29T22:11:29.902Z,99.99
2023-01-29T22:14:00.126Z,99.99
2023-01-29T22:16:31.000Z,99.99
2023-01-29T22:19:02.653Z,99.99
2023-01-29T22:21:34.474Z,99.99
2023-01-29T22:24:06.370Z,99.99
2023-01-29T22:26:36.871Z,99.99
2023-01-29T22:29:07.105Z,99.99
2023-01-29T22:31:37.084Z,99.99
2023-01-29T22:34:08.013Z,99.99
2023-01-29T22:36:40.189Z,99.99
2023-01-29T22:39:10.786Z,99.99
2023-01-29T22:41:40.926Z,99.99
2023-01-29T22:44:11.585Z,99.99
2023-01-29T22:46:44.758Z,99.99
2023-01-29T22:49:14.869Z,99.99
2023-01-29T22:51:45.016Z,99.99
2023-01-29T22:54:16.654Z,99.99
2023-01-29T22:56:48.561Z,99.99
2023-01-29T22:59:18.463Z,99.99
2023-01-29T23:01:53.389Z,99.99
2023-01-29T23:04:23.519Z,99.99
2023-01-29T23:06:53.373Z,99.99
2023-01-29T23:09:23.781Z,99.99
2023-01-29T23:11:53.776Z,99.99
2023-01-29T23:14:23.813Z,99.99
2023-01-29T23:16:54.069Z,99.99
2023-01-29T23:19:24.432Z,99.99
2023-01-29T23:21:54.515Z,99.99
2023-01-29T23:24:24.771Z,99.99
2023-01-29T23:27:13.155Z,99.99
2023-01-29T23:29:48.618Z,99.99
2023-01-29T23:32:22.327Z,99.99
2023-01-29T23:34:53.656Z,99.99
2023-01-29T23:37:23.644Z,99.99
2023-01-29T23:39:53.973Z,99.99
2023-01-29T23:42:23.976Z,99.99
2023-01-29T23:44:53.980Z,99.99
2023-01-29T23:47:24.116Z,99.99
2023-01-29T23:49:54.386Z,99.99
2023-01-29T23:52:24.370Z,99.99
2023-01-29T23:54:54.206Z,99.99
2023-01-29T23:57:24.272Z,99.99
2023-01-29T23:59:54.278Z,99.99
